Time;durP1;ratioP1;P1;durP2;ratioP2;P2;SDS_P1;SDS_P2;PMS_P1;PMS_P2;Temp;Humidity;BMP_temperature;BMP_pressure;BME280_temperature;BME280_humidity;BME280_pressure;Samples;Min_cycle;Max_cycle;Signal;HPM_P1;HPM_P2
2021/05/14 00:00:22;;;;;;;1.42;0.50;;;;;;;28.11;31.20;95815.50;5031052;28;20671;-29
2021/05/14 00:02:47;;;;;;;7.40;0.82;;;;;;;28.10;31.25;95819.94;5024857;28;20022;-31
2021/05/14 00:05:13;;;;;;;2.10;0.45;;;;;;;28.10;31.11;95814.66;5029858;28;20025;-27
2021/05/14 00:07:38;;;;;;;3.40;0.60;;;;;;;28.10;31.17;95809.41;5030357;28;20154;-28
2021/05/14 00:10:05;;;;;;;2.85;0.63;;;;;;;28.10;31.17;95809.41;5031863;28;20754;-33
2021/05/14 00:12:30;;;;;;;3.15;0.75;;;;;;;28.10;31.09;95808.56;5034355;28;20104;-32
2021/05/14 00:14:55;;;;;;;3.78;0.70;;;;;;;28.09;31.06;95813.00;5032976;28;20581;-30
2021/05/14 00:17:21;;;;;;;1.75;0.43;;;;;;;28.09;31.16;95817.41;5039288;28;20044;-32
2021/05/14 00:19:46;;;;;;;1.80;0.57;;;;;;;28.08;30.99;95821.84;5034027;28;20044;-32
2021/05/14 00:22:12;;;;;;;3.53;0.40;;;;;;;28.08;31.05;95816.59;5032391;28;20050;-32
2021/05/14 00:24:37;;;;;;;2.33;0.90;;;;;;;28.08;31.28;95816.59;5039455;28;20033;-28
2021/05/14 00:27:03;;;;;;;3.95;0.60;;;;;;;28.09;31.08;95813.00;5039179;28;20033;-28
2021/05/14 00:29:28;;;;;;;1.75;0.40;;;;;;;28.07;31.08;95809.63;5028682;28;21861;-30
2021/05/14 00:31:54;;;;;;;3.60;0.50;;;;;;;28.08;31.01;95810.47;5029054;28;21273;-30
2021/05/14 00:34:20;;;;;;;2.17;0.52;;;;;;;28.07;31.13;95808.81;5032412;28;20024;-31
2021/05/14 00:36:46;;;;;;;0.80;0.38;;;;;;;28.07;31.08;95809.63;5030037;28;20541;-29
2021/05/14 00:39:11;;;;;;;0.90;0.40;;;;;;;28.07;31.28;95809.63;5032459;28;20028;-31
2021/05/14 00:41:37;;;;;;;1.25;0.43;;;;;;;28.07;31.25;95804.34;5022313;28;20028;-28
2021/05/14 00:44:30;;;;;;;2.10;0.50;;;;;;;28.07;31.06;95816.72;5033443;28;20041;-29
2021/05/14 00:46:57;;;;;;;2.13;0.50;;;;;;;28.06;31.17;95813.22;5020762;28;20033;-31
2021/05/14 00:49:22;;;;;;;2.10;0.50;;;;;;;28.06;31.17;95815.03;5026815;28;20236;-30
2021/05/14 00:51:48;;;;;;;3.95;0.60;;;;;;;28.04;31.23;95809.88;5033065;28;20123;-29
2021/05/14 00:54:14;;;;;;;3.33;0.60;;;;;;;28.05;31.18;95814.19;5028686;28;20028;-28
2021/05/14 00:56:40;;;;;;;0.93;0.40;;;;;;;28.04;31.10;95813.34;5037510;28;20113;-28
2021/05/14 00:59:05;;;;;;;2.47;0.60;;;;;;;28.04;31.27;95807.25;5035253;28;20036;-29
2021/05/14 01:01:31;;;;;;;3.65;0.60;;;;;;;28.03;31.06;95814.31;5033193;28;20045;-32
2021/05/14 01:03:56;;;;;;;2.28;0.50;;;;;;;28.03;31.09;95805.56;5036478;28;20514;-30
2021/05/14 01:06:21;;;;;;;1.65;0.40;;;;;;;28.03;31.06;95808.19;5027606;28;20037;-33
2021/05/14 01:08:47;;;;;;;1.65;0.55;;;;;;;28.03;31.16;95806.41;5034100;28;20044;-31
2021/05/14 01:11:12;;;;;;;0.70;0.30;;;;;;;28.02;31.19;95803.88;5036018;28;20620;-28
2021/05/14 01:13:37;;;;;;;0.60;0.40;;;;;;;28.03;31.10;95802.91;5034642;28;20032;-29
2021/05/14 01:16:03;;;;;;;2.30;0.57;;;;;;;28.03;31.19;95801.13;5039546;28;20852;-32
2021/05/14 01:18:28;;;;;;;0.80;0.40;;;;;;;28.02;31.03;95795.97;5042115;28;20732;-30
2021/05/14 01:20:54;;;;;;;0.60;0.32;;;;;;;28.01;31.13;95791.69;5036364;28;20423;-28
2021/05/14 01:23:19;;;;;;;1.27;0.40;;;;;;;28.01;31.21;95795.16;5037314;28;20049;-30
2021/05/14 01:25:45;;;;;;;1.85;0.65;;;;;;;28.00;31.09;95787.38;5035843;28;20059;-29
2021/05/14 01:28:10;;;;;;;4.57;0.50;;;;;;;28.02;31.23;95795.97;5034968;28;20533;-31
2021/05/14 01:30:38;;;;;;;0.65;0.43;;;;;;;28.01;31.10;95795.16;5030649;28;20093;-33
2021/05/14 01:33:03;;;;;;;0.40;0.40;;;;;;;28.01;31.04;95786.41;5037407;28;20035;-30
2021/05/14 01:35:29;;;;;;;2.03;0.32;;;;;;;28.01;31.02;95794.31;5034677;28;20028;-28
2021/05/14 01:37:54;;;;;;;1.67;0.40;;;;;;;28.00;30.94;95787.38;5037944;28;20510;-28
2021/05/14 01:40:20;;;;;;;0.50;0.20;;;;;;;28.00;31.06;95787.38;5038420;28;20326;-30
2021/05/14 01:42:47;;;;;;;0.43;0.30;;;;;;;27.99;31.01;95791.78;5034199;28;20491;-28
2021/05/14 01:45:13;;;;;;;1.42;0.50;;;;;;;28.00;31.00;95787.38;5039113;28;20032;-30
2021/05/14 01:47:38;;;;;;;0.68;0.28;;;;;;;27.99;31.14;95786.53;5038413;28;20024;-30
2021/05/14 01:50:04;;;;;;;1.17;0.52;;;;;;;27.98;31.17;95781.38;5037324;28;20032;-28
2021/05/14 01:52:29;;;;;;;0.40;0.40;;;;;;;27.99;31.04;95790.97;5031635;28;20123;-28
2021/05/14 01:54:55;;;;;;;0.95;0.35;;;;;;;27.98;31.44;95784.00;5035829;28;20951;-30
2021/05/14 01:57:20;;;;;;;1.48;0.65;;;;;;;27.98;31.04;95791.91;5023989;28;20040;-31
2021/05/14 01:59:45;;;;;;;1.90;0.30;;;;;;;27.97;31.14;95777.06;5033414;28;20569;-30
2021/05/14 02:02:11;;;;;;;0.63;0.30;;;;;;;27.97;31.17;95779.72;5032031;28;20694;-30
2021/05/14 02:04:36;;;;;;;1.75;0.30;;;;;;;27.97;31.36;95779.72;5029392;28;20036;-27
2021/05/14 02:07:02;;;;;;;0.75;0.43;;;;;;;27.97;31.18;95779.72;5029002;28;20087;-26
2021/05/14 02:09:27;;;;;;;0.73;0.30;;;;;;;27.96;31.17;95778.03;5030655;28;20034;-31
2021/05/14 02:11:52;;;;;;;0.85;0.40;;;;;;;27.97;31.08;95782.34;5036782;28;20036;-28
2021/05/14 02:14:18;;;;;;;0.70;0.40;;;;;;;27.96;31.11;95783.31;5032359;28;20025;-30
2021/05/14 02:16:43;;;;;;;3.85;0.60;;;;;;;27.96;31.12;95791.22;5041236;28;20094;-32
2021/05/14 02:19:09;;;;;;;1.77;0.50;;;;;;;27.95;31.10;95786.91;5033041;28;20036;-31
2021/05/14 02:21:34;;;;;;;0.60;0.30;;;;;;;27.95;31.08;95786.91;5027790;28;20028;-31
2021/05/14 02:23:59;;;;;;;0.90;0.40;;;;;;;27.94;31.26;95783.44;5040015;28;20021;-29
2021/05/14 02:26:27;;;;;;;0.68;0.40;;;;;;;27.95;30.90;95792.16;5034369;28;20903;-27
2021/05/14 02:28:53;;;;;;;2.20;0.65;;;;;;;27.94;31.10;95787.84;5036091;28;20111;-29
2021/05/14 02:31:18;;;;;;;1.15;0.40;;;;;;;27.93;31.08;95784.38;5023497;28;20102;-34
2021/05/14 02:33:43;;;;;;;2.25;0.60;;;;;;;27.92;31.14;95785.34;5037481;28;20059;-27
2021/05/14 02:36:09;;;;;;;0.82;0.40;;;;;;;27.92;31.08;95786.16;5029253;28;20045;-26
2021/05/14 02:38:34;;;;;;;0.30;0.30;;;;;;;27.92;31.10;95785.34;5035556;28;20055;-30
2021/05/14 02:41:00;;;;;;;0.30;0.20;;;;;;;27.91;31.14;95779.25;5033530;28;20045;-29
2021/05/14 02:43:25;;;;;;;0.85;0.30;;;;;;;27.92;31.03;95780.09;5031476;28;20082;-29
2021/05/14 02:45:50;;;;;;;1.15;0.40;;;;;;;27.91;30.81;95776.59;5036740;28;20074;-33
2021/05/14 02:48:19;;;;;;;5.55;0.50;;;;;;;27.92;30.97;95782.72;5034372;28;20419;-28
2021/05/14 02:50:45;;;;;;;0.40;0.40;;;;;;;27.91;31.06;95784.50;5030875;28;20114;-30
2021/05/14 02:53:10;;;;;;;1.27;0.47;;;;;;;27.91;31.04;95783.66;5039450;28;20041;-28
2021/05/14 02:55:36;;;;;;;0.65;0.30;;;;;;;27.91;31.17;95776.59;5038109;28;20025;-30
2021/05/14 02:58:01;;;;;;;2.15;0.32;;;;;;;27.90;30.94;95782.84;5035730;28;20029;-29
2021/05/14 03:00:27;;;;;;;0.40;0.30;;;;;;;27.90;31.03;95780.19;5036588;28;20025;-29
2021/05/14 03:02:52;;;;;;;1.45;0.35;;;;;;;27.91;31.08;95779.25;5020153;28;20028;-30
2021/05/14 03:05:17;;;;;;;1.45;0.82;;;;;;;27.89;31.09;95775.06;5021582;28;20036;-32
2021/05/14 03:07:43;;;;;;;1.02;0.30;;;;;;;27.90;31.04;95781.97;5032902;28;20582;-34
2021/05/14 03:10:09;;;;;;;1.15;0.38;;;;;;;27.89;31.05;95775.88;5033370;28;20037;-30
2021/05/14 03:12:34;;;;;;;1.23;0.30;;;;;;;27.89;31.10;95775.06;5034981;28;20035;-32
2021/05/14 03:15:00;;;;;;;1.02;0.40;;;;;;;27.88;31.13;95771.56;5033307;28;20028;-29
2021/05/14 03:17:25;;;;;;;0.47;0.43;;;;;;;27.88;31.08;95771.56;5031827;28;20463;-31
2021/05/14 03:19:50;;;;;;;0.40;0.28;;;;;;;27.88;31.02;95776.00;5033263;28;20165;-32
2021/05/14 03:22:16;;;;;;;0.63;0.30;;;;;;;27.88;30.97;95782.09;5033090;28;20032;-30
2021/05/14 03:24:41;;;;;;;0.35;0.35;;;;;;;27.88;30.88;95773.38;5041114;28;20029;-29
2021/05/14 03:27:06;;;;;;;0.68;0.30;;;;;;;27.87;30.92;95772.53;5029004;28;20421;-30
2021/05/14 03:29:32;;;;;;;0.70;0.17;;;;;;;27.88;30.88;95774.19;5035417;28;20045;-29
2021/05/14 03:31:57;;;;;;;0.52;0.40;;;;;;;27.87;30.96;95775.16;5029359;28;20040;-30
2021/05/14 03:34:26;;;;;;;0.63;0.30;;;;;;;27.87;31.06;95782.22;5031619;28;20021;-28
2021/05/14 03:36:51;;;;;;;0.52;0.20;;;;;;;27.86;31.01;95778.75;5032466;28;20032;-30
2021/05/14 03:39:21;;;;;;;1.17;0.30;;;;;;;27.86;30.90;95778.75;5032250;28;22340;-32
2021/05/14 03:41:49;;;;;;;3.13;0.50;;;;;;;27.86;30.96;95770.88;5033496;28;20574;-30
2021/05/14 03:44:15;;;;;;;1.92;0.40;;;;;;;27.86;31.07;95770.00;5024681;28;20384;-25
2021/05/14 03:46:40;;;;;;;1.38;0.47;;;;;;;27.86;30.97;95775.28;5023303;28;20032;-33
2021/05/14 03:49:06;;;;;;;0.93;0.32;;;;;;;27.86;31.14;95776.13;5017954;28;20024;-29
2021/05/14 03:51:33;;;;;;;4.47;0.38;;;;;;;27.86;30.93;95770.88;5027474;28;20031;-27
2021/05/14 03:53:59;;;;;;;3.22;0.22;;;;;;;27.85;31.01;95763.94;5006285;28;20765;-30
2021/05/14 03:56:24;;;;;;;4.07;0.40;;;;;;;27.85;30.82;95777.09;5034991;28;20044;-31
2021/05/14 03:58:50;;;;;;;2.72;0.50;;;;;;;27.84;30.89;95772.75;5034540;28;20029;-27
2021/05/14 04:01:16;;;;;;;9.45;0.52;;;;;;;27.78;30.92;95757.47;5031942;28;20423;-30
2021/05/14 04:03:42;;;;;;;0.90;0.50;;;;;;;27.84;30.89;95772.75;5034569;28;20063;-32
2021/05/14 04:06:07;;;;;;;1.55;0.40;;;;;;;27.83;30.92;95776.34;5030592;28;20033;-31
2021/05/14 04:08:33;;;;;;;1.75;0.70;;;;;;;27.83;30.90;95773.72;5033666;28;20395;-29
2021/05/14 04:16:25;;;;;;;0.40;0.40;;;;;;;27.83;30.83;95775.50;5032078;28;20040;-31
2021/05/14 04:18:51;;;;;;;0.70;0.43;;;;;;;27.82;30.85;95773.84;5036421;28;20013;-29
2021/05/14 04:21:16;;;;;;;1.25;0.30;;;;;;;27.81;30.95;95773.03;5036877;28;20051;-29
2021/05/14 04:23:42;;;;;;;0.52;0.20;;;;;;;27.82;30.91;95769.44;5038139;28;20044;-29
2021/05/14 04:26:07;;;;;;;2.22;0.30;;;;;;;27.81;30.80;95775.66;5041505;28;20028;-29
2021/05/14 04:28:32;;;;;;;0.55;0.17;;;;;;;27.81;30.99;95782.69;5042008;28;20399;-29
2021/05/14 04:30:58;;;;;;;3.00;0.65;;;;;;;27.80;30.98;95775.78;5033887;28;20037;-26
2021/05/14 04:33:23;;;;;;;0.50;0.40;;;;;;;27.80;30.84;95776.59;5042888;28;20037;-30
2021/05/14 04:35:49;;;;;;;2.13;0.40;;;;;;;27.80;31.04;95775.78;5032426;28;20028;-31
2021/05/14 04:38:15;;;;;;;5.00;0.50;;;;;;;27.81;30.95;95786.19;5034094;28;20032;-31
2021/05/14 04:40:40;;;;;;;0.80;0.30;;;;;;;27.79;31.00;95780.19;5040204;28;20132;-28
2021/05/14 04:43:05;;;;;;;5.57;0.60;;;;;;;27.80;30.89;95781.84;5034310;28;20040;-30
2021/05/14 04:45:31;;;;;;;1.33;0.35;;;;;;;27.79;30.84;95785.44;5037190;28;20039;-30
2021/05/14 04:47:59;;;;;;;0.75;0.30;;;;;;;27.80;30.90;95787.13;5039987;28;20044;-27
2021/05/14 04:50:25;;;;;;;0.68;0.30;;;;;;;27.80;30.93;95778.41;5034983;28;20064;-31
2021/05/14 04:53:00;;;;;;;0.82;0.22;;;;;;;27.80;30.90;95783.66;5036657;28;20653;-29
2021/05/14 04:55:25;;;;;;;0.20;0.20;;;;;;;27.80;30.86;95781.84;5036376;28;20535;-29
2021/05/14 04:57:50;;;;;;;0.93;0.38;;;;;;;27.80;30.93;95786.31;5030295;28;20031;-29
2021/05/14 05:00:16;;;;;;;1.25;0.40;;;;;;;27.79;30.92;95774.91;5035503;28;20037;-28
2021/05/14 05:02:42;;;;;;;1.75;0.70;;;;;;;27.79;30.95;95769.66;5033188;28;20028;-34
2021/05/14 05:05:07;;;;;;;2.38;0.30;;;;;;;27.78;30.87;95773.25;5033582;28;20337;-32
2021/05/14 05:07:33;;;;;;;0.20;0.20;;;;;;;27.78;30.94;95784.63;5005727;28;20028;-30
2021/05/14 05:09:58;;;;;;;0.73;0.30;;;;;;;27.78;30.90;95789.91;5038841;28;20037;-31
2021/05/14 05:12:24;;;;;;;0.30;0.30;;;;;;;27.79;30.86;95790.72;5031722;28;20983;-30
2021/05/14 05:14:50;;;;;;;0.65;0.30;;;;;;;27.78;30.91;95794.31;5038404;28;20024;-28
2021/05/14 05:17:15;;;;;;;3.05;0.45;;;;;;;27.78;30.99;95783.78;5035209;28;20028;-29
2021/05/14 05:19:40;;;;;;;1.15;0.43;;;;;;;27.78;30.95;95795.16;5034097;28;20036;-31
2021/05/14 05:22:06;;;;;;;1.48;0.40;;;;;;;27.78;30.86;95799.56;5030895;28;20040;-30
2021/05/14 05:24:31;;;;;;;1.38;0.40;;;;;;;27.78;30.94;95799.56;5034357;28;20064;-33
2021/05/14 05:26:57;;;;;;;0.55;0.20;;;;;;;27.77;31.04;95803.16;5034979;28;20474;-29
2021/05/14 05:29:22;;;;;;;0.55;0.30;;;;;;;27.77;30.98;95804.00;5032291;28;20037;-33
2021/05/14 05:31:47;;;;;;;0.57;0.30;;;;;;;27.77;30.81;95805.81;5034439;28;20037;-30
2021/05/14 05:34:13;;;;;;;1.10;0.32;;;;;;;27.77;30.82;95804.00;5033783;28;20574;-29
2021/05/14 05:36:38;;;;;;;0.30;0.10;;;;;;;27.78;31.01;95804.84;5025102;28;20020;-31
2021/05/14 05:39:03;;;;;;;0.75;0.32;;;;;;;27.78;30.96;95810.97;5030685;28;20276;-32
2021/05/14 05:41:29;;;;;;;0.70;0.28;;;;;;;27.79;31.02;95814.41;5039144;28;20538;-32
2021/05/14 05:43:54;;;;;;;0.32;0.20;;;;;;;27.78;31.02;95810.97;5040097;28;20078;-30
2021/05/14 05:46:20;;;;;;;0.68;0.38;;;;;;;27.79;31.02;95814.41;5040618;28;20013;-30
2021/05/14 05:48:46;;;;;;;1.17;0.30;;;;;;;27.80;31.03;95817.88;5039323;28;20029;-30
2021/05/14 05:51:13;;;;;;;0.70;0.30;;;;;;;27.79;30.98;95811.78;5031203;28;20030;-30
2021/05/14 05:53:38;;;;;;;0.52;0.20;;;;;;;27.80;31.02;95812.63;5034805;28;20029;-32
2021/05/14 05:56:06;;;;;;;0.15;0.15;;;;;;;27.80;30.92;95817.88;5034541;28;20062;-28
2021/05/14 05:58:32;;;;;;;0.20;0.20;;;;;;;27.80;30.94;95829.25;5027044;28;20028;-34
2021/05/14 06:00:58;;;;;;;0.70;0.20;;;;;;;27.80;31.11;95829.25;5029956;28;20034;-34
2021/05/14 06:03:23;;;;;;;1.10;0.30;;;;;;;27.81;31.04;95830.94;5036745;28;20017;-29
2021/05/14 06:05:49;;;;;;;0.45;0.30;;;;;;;27.80;31.06;95834.50;5029481;28;20159;-27
2021/05/14 06:08:14;;;;;;;0.28;0.15;;;;;;;27.80;31.05;95833.69;5037218;28;20033;-31
2021/05/14 06:10:40;;;;;;;0.20;0.20;;;;;;;27.80;31.15;95826.59;5037308;28;20044;-30
2021/05/14 06:13:06;;;;;;;1.95;0.32;;;;;;;27.82;31.01;95832.59;5031251;28;20032;-30
2021/05/14 06:15:31;;;;;;;0.20;0.20;;;;;;;27.80;30.92;95831.88;5033376;28;20377;-32
2021/05/14 06:17:56;;;;;;;0.35;0.30;;;;;;;27.80;30.78;95834.50;5031266;28;20450;-29
2021/05/14 06:20:24;;;;;;;0.95;0.20;;;;;;;27.81;31.05;95836.19;5028464;28;20027;-32
2021/05/14 06:22:50;;;;;;;0.40;0.25;;;;;;;27.81;31.01;95833.56;5030215;28;20261;-30
2021/05/14 06:25:15;;;;;;;1.17;0.45;;;;;;;27.80;31.05;95833.69;5032673;28;20036;-28
2021/05/14 06:27:41;;;;;;;0.28;0.28;;;;;;;27.81;31.03;95836.19;5019912;28;20706;-29
2021/05/14 06:30:06;;;;;;;0.57;0.20;;;;;;;27.81;30.95;95836.19;5026723;28;20025;-27
2021/05/14 06:32:35;;;;;;;1.17;0.30;;;;;;;27.80;30.92;95829.25;5025386;28;20329;-29
2021/05/14 06:35:01;;;;;;;2.67;0.52;;;;;;;27.82;31.04;95829.13;5029311;28;20012;-32
2021/05/14 06:37:26;;;;;;;1.38;0.50;;;;;;;27.81;31.05;95825.69;5027493;28;20021;-27
2021/05/14 06:39:51;;;;;;;15.68;1.00;;;;;;;27.82;31.00;95832.59;5022499;28;20581;-34
2021/05/14 06:42:17;;;;;;;10.80;0.95;;;;;;;27.82;30.75;95831.75;5022991;28;20024;-30
2021/05/14 06:44:42;;;;;;;6.35;0.93;;;;;;;27.82;30.63;95827.34;5024824;28;20045;-32
2021/05/14 06:47:08;;;;;;;8.13;0.90;;;;;;;27.83;30.69;95829.00;5025156;28;20252;-32
2021/05/14 06:49:33;;;;;;;2.50;0.93;;;;;;;27.83;30.34;95831.66;5024197;28;20715;-32
2021/05/14 06:51:59;;;;;;;5.10;1.23;;;;;;;27.84;30.56;95830.69;5023544;28;20032;-31
2021/05/14 06:54:24;;;;;;;2.28;0.90;;;;;;;27.85;30.66;95827.13;5026647;28;20029;-29
2021/05/14 06:56:50;;;;;;;4.70;1.00;;;;;;;27.86;30.79;95828.78;5025511;28;20040;-30
2021/05/14 06:59:16;;;;;;;7.18;1.40;;;;;;;27.87;30.85;95833.09;5024678;28;21049;-31
2021/05/14 07:01:42;;;;;;;14.52;1.13;;;;;;;27.88;31.16;95832.13;5026529;28;20067;-33
2021/05/14 07:04:08;;;;;;;22.67;1.80;;;;;;;27.89;31.36;95839.06;5027195;28;20029;-29
2021/05/14 07:06:33;;;;;;;23.58;1.50;;;;;;;27.90;30.94;95834.66;5024840;28;20044;-29
2021/05/14 07:08:58;;;;;;;22.88;1.38;;;;;;;27.89;30.15;95838.25;5024695;28;20091;-31
2021/05/14 07:11:24;;;;;;;4.97;1.05;;;;;;;27.87;29.17;95834.88;5027103;28;20039;-28
2021/05/14 07:13:49;;;;;;;8.30;0.90;;;;;;;27.81;28.24;95838.00;5024676;28;20029;-28
2021/05/14 07:16:17;;;;;;;7.85;0.75;;;;;;;27.75;27.45;95847.19;5025017;28;20024;-28
2021/05/14 07:18:42;;;;;;;2.88;0.70;;;;;;;27.68;27.22;95841.56;5024117;28;20091;-28
2021/05/14 07:21:07;;;;;;;9.65;0.77;;;;;;;27.59;27.12;95839.59;5013753;28;20207;-29
2021/05/14 07:23:33;;;;;;;1.52;0.73;;;;;;;27.51;27.05;95845.44;5026604;28;20526;-29
2021/05/14 07:25:59;;;;;;;4.30;0.63;;;;;;;27.43;27.21;95840.75;5021969;28;20028;-27
2021/05/14 07:28:24;;;;;;;4.80;0.80;;;;;;;27.37;26.77;95844.69;5026334;28;20040;-30
2021/05/14 07:30:49;;;;;;;1.60;0.60;;;;;;;27.29;26.69;95844.41;5028010;28;20535;-30
2021/05/14 07:33:15;;;;;;;4.05;0.70;;;;;;;27.24;26.98;95843.91;5025858;28;20046;-30
2021/05/14 07:35:40;;;;;;;2.88;0.50;;;;;;;27.19;27.11;95844.25;5020817;28;20257;-31
2021/05/14 07:38:06;;;;;;;4.13;0.73;;;;;;;27.13;27.34;95836.81;5028972;28;20048;-27
2021/05/14 07:40:31;;;;;;;7.80;0.70;;;;;;;27.11;27.36;95839.56;5028888;28;20894;-28
2021/05/14 07:42:57;;;;;;;2.55;0.57;;;;;;;27.07;27.32;95840.72;5022961;28;20048;-26
2021/05/14 07:45:22;;;;;;;1.85;0.55;;;;;;;27.05;27.40;95834.75;5024195;28;20033;-31
2021/05/14 07:47:47;;;;;;;4.22;0.90;;;;;;;27.03;27.13;95841.09;5026550;28;20127;-28
2021/05/14 07:50:13;;;;;;;4.30;0.50;;;;;;;26.98;27.12;95836.16;5024678;28;20025;-27
2021/05/14 07:52:39;;;;;;;2.08;0.82;;;;;;;26.96;26.99;95841.53;5026264;28;20028;-33
2021/05/14 07:55:05;;;;;;;0.45;0.30;;;;;;;26.93;26.83;95841.72;5026464;28;20025;-27
2021/05/14 07:57:31;;;;;;;2.58;0.50;;;;;;;26.91;26.91;95837.50;5025433;28;20366;-27
2021/05/14 07:59:56;;;;;;;1.20;0.55;;;;;;;26.88;27.00;95838.56;5028594;28;20027;-29
2021/05/14 08:02:21;;;;;;;2.75;0.70;;;;;;;26.85;26.91;95838.81;5021861;28;20549;-26
2021/05/14 08:04:47;;;;;;;3.97;0.80;;;;;;;26.83;26.76;95836.31;5021135;28;20028;-29
2021/05/14 08:07:12;;;;;;;1.02;0.68;;;;;;;26.81;26.89;95838.19;5025037;28;20033;-29
2021/05/14 08:09:40;;;;;;;1.33;0.63;;;;;;;26.81;27.09;95835.56;5022292;28;20040;-30
2021/05/14 08:12:06;;;;;;;2.50;0.50;;;;;;;26.80;27.11;95831.25;5025362;28;20032;-30
2021/05/14 08:14:31;;;;;;;3.47;0.50;;;;;;;26.80;27.03;95836.50;5023860;28;20029;-28
2021/05/14 08:16:57;;;;;;;2.05;0.65;;;;;;;26.80;26.90;95830.41;5026536;28;20036;-29
2021/05/14 08:19:23;;;;;;;1.88;0.63;;;;;;;26.79;26.88;95824.31;5027911;28;20037;-31
2021/05/14 08:21:48;;;;;;;3.75;0.57;;;;;;;26.79;26.88;95834.84;5001927;28;20036;-32
2021/05/14 08:24:14;;;;;;;4.60;0.50;;;;;;;26.78;26.81;95835.81;5025943;28;20028;-34
2021/05/14 08:26:40;;;;;;;1.77;0.60;;;;;;;26.77;26.70;95828.84;5025769;28;20063;-27
2021/05/14 08:29:06;;;;;;;23.70;1.23;;;;;;;26.77;26.81;95836.72;5024190;28;20052;-31
2021/05/14 08:31:34;;;;;;;12.77;1.25;;;;;;;26.79;26.91;95834.00;5026293;28;21169;-28
2021/05/14 08:33:59;;;;;;;2.53;0.52;;;;;;;26.82;27.03;95833.78;5024030;28;20897;-29
2021/05/14 08:36:24;;;;;;;5.05;0.73;;;;;;;26.86;27.38;95836.06;5021196;28;20028;-30
2021/05/14 08:38:50;;;;;;;6.13;0.75;;;;;;;26.90;27.71;95836.69;5023629;28;20028;-29
2021/05/14 08:41:15;;;;;;;6.40;1.45;;;;;;;26.95;28.02;95837.22;5023417;28;20561;-30
2021/05/14 08:43:41;;;;;;;7.43;0.98;;;;;;;27.00;28.10;95835.09;5021980;28;20032;-31
2021/05/14 08:46:06;;;;;;;24.38;1.33;;;;;;;27.04;27.18;95825.19;5028131;28;21266;-30
2021/05/14 08:48:35;;;;;;;14.38;1.55;;;;;;;27.00;25.07;95831.59;5019695;28;20064;-31
2021/05/14 08:51:10;;;;;;;1.15;0.40;;;;;;;26.88;23.46;95826.28;5016459;28;20107;-28
2021/05/14 08:53:37;;;;;;;23.55;1.52;;;;;;;26.77;23.45;95828.84;5024581;28;20036;-29
2021/05/14 08:56:02;;;;;;;8.15;0.88;;;;;;;26.69;23.73;95826.78;5022411;28;20035;-28
2021/05/14 08:58:28;;;;;;;9.65;0.68;;;;;;;26.63;23.88;95829.00;5022323;28;20025;-30
2021/05/14 09:00:53;;;;;;;3.70;0.82;;;;;;;26.60;24.33;95827.44;5020862;28;20055;-27
2021/05/14 09:03:20;;;;;;;7.57;0.90;;;;;;;26.59;24.61;95826.59;5023531;28;20056;-29
2021/05/14 09:05:46;;;;;;;11.35;0.57;;;;;;;26.61;24.92;95821.22;5011911;28;20029;-30
2021/05/14 09:08:11;;;;;;;10.73;1.15;;;;;;;26.64;25.34;95830.69;5021945;28;20119;-30
2021/05/14 09:10:37;;;;;;;5.68;0.70;;;;;;;26.68;25.62;95826.88;5024264;28;20028;-33
2021/05/14 09:13:10;;;;;;;15.85;1.40;;;;;;;26.73;25.71;95828.22;5020680;28;20028;-28
2021/05/14 09:15:36;;;;;;;22.17;1.40;;;;;;;26.79;25.86;95823.47;5012102;28;20965;-31
2021/05/14 09:18:11;;;;;;;11.85;1.00;;;;;;;26.84;26.13;95832.72;5024830;28;20032;-28
2021/05/14 09:20:43;;;;;;;8.10;1.60;;;;;;;26.88;26.35;95822.81;5028767;28;20071;-28
2021/05/14 09:23:20;;;;;;;7.70;1.02;;;;;;;26.91;26.54;95830.47;5024387;28;20052;-30
2021/05/14 09:26:08;;;;;;;11.07;1.23;;;;;;;26.98;26.58;95826.50;5026151;28;20029;-31
2021/05/14 09:28:50;;;;;;;11.38;0.90;;;;;;;27.03;26.62;95825.31;5027098;28;20394;-29
2021/05/14 09:31:20;;;;;;;9.57;0.95;;;;;;;27.07;26.75;95826.75;5027697;28;20071;-31
2021/05/14 09:33:45;;;;;;;6.28;1.10;;;;;;;27.10;26.91;95832.63;5026257;28;20035;-30
2021/05/14 09:36:17;;;;;;;26.25;1.40;;;;;;;27.13;26.90;95835.03;5028255;28;20025;-27
2021/05/14 09:38:58;;;;;;;9.15;0.88;;;;;;;27.18;27.17;95833.84;5028000;28;20033;-29
2021/05/14 09:41:30;;;;;;;11.00;0.80;;;;;;;27.21;27.17;95831.84;5024487;28;20036;-28
2021/05/14 09:44:20;;;;;;;7.15;0.95;;;;;;;27.24;27.43;95830.78;5023264;28;20362;-28
2021/05/14 09:46:47;;;;;;;4.70;0.90;;;;;;;27.27;27.44;95833.19;5025810;28;20551;-29
2021/05/14 09:49:20;;;;;;;12.35;1.20;;;;;;;27.29;27.52;95828.63;5027233;28;20036;-28
2021/05/14 09:51:58;;;;;;;13.18;0.93;;;;;;;27.34;27.73;95834.38;5027745;28;20174;-29
2021/05/14 09:54:26;;;;;;;19.88;1.50;;;;;;;27.37;27.78;95822.78;5027281;28;20981;-29
2021/05/14 09:59:57;;;;;;;5.53;1.52;;;;;;;27.42;27.29;95835.59;5027077;28;20665;-28
2021/05/14 10:02:28;;;;;;;7.43;1.00;;;;;;;27.42;26.08;95832.97;5023119;28;20036;-31
2021/05/14 10:04:53;;;;;;;3.27;1.00;;;;;;;27.41;25.08;95834.75;5020041;28;20131;-30
2021/05/14 10:07:23;;;;;;;3.85;1.05;;;;;;;27.36;25.81;95853.53;5025668;28;20021;-30
2021/05/14 10:09:54;;;;;;;2.33;0.70;;;;;;;27.35;26.29;95856.28;5017170;28;20028;-32
2021/05/14 10:12:20;;;;;;;2.08;0.80;;;;;;;27.32;27.19;95844.19;5025176;28;20767;-31
2021/05/14 10:14:45;;;;;;;15.10;1.00;;;;;;;27.38;27.55;95846.34;5008967;28;20036;-31
2021/05/14 10:17:11;;;;;;;4.97;1.35;;;;;;;27.43;27.30;95832.88;5016391;28;20720;-32
2021/05/14 10:19:36;;;;;;;5.88;0.88;;;;;;;27.49;27.53;95842.06;5031360;28;20049;-32
2021/05/14 10:22:05;;;;;;;5.13;1.08;;;;;;;27.57;29.32;95844.97;5014129;28;20035;-30
2021/05/14 10:24:58;;;;;;;4.00;0.80;;;;;;;27.65;28.95;95840.00;5017304;28;20068;-31
2021/05/14 10:27:25;;;;;;;2.58;0.65;;;;;;;27.74;28.66;95829.72;5030463;28;20140;-30
2021/05/14 10:29:54;;;;;;;4.53;0.77;;;;;;;27.82;28.63;95832.59;5024583;28;20104;-30
2021/05/14 10:32:45;;;;;;;6.57;0.80;;;;;;;27.92;28.26;95827.47;5027292;28;20052;-32
2021/05/14 10:35:15;;;;;;;4.32;0.90;;;;;;;28.02;28.38;95824.94;5026409;28;20032;-30
2021/05/14 10:37:47;;;;;;;3.95;1.17;;;;;;;28.14;28.15;95831.91;5020163;28;20698;-34
2021/05/14 10:40:31;;;;;;;8.30;0.73;;;;;;;28.24;27.43;95823.28;5025289;28;20075;-33
2021/05/14 10:42:58;;;;;;;6.70;1.08;;;;;;;28.38;28.03;95819.59;5028596;28;20016;-31
2021/05/14 10:45:44;;;;;;;3.30;0.77;;;;;;;28.48;27.41;95809.97;5024038;28;20544;-29
2021/05/14 10:48:17;;;;;;;3.35;0.73;;;;;;;28.54;26.05;95811.28;5028464;28;20036;-31
2021/05/14 10:50:59;;;;;;;2.55;0.80;;;;;;;28.55;26.12;95807.69;5024881;28;20194;-29
2021/05/14 10:53:39;;;;;;;2.58;0.73;;;;;;;28.54;26.11;95812.13;5023066;28;20029;-28
2021/05/14 10:56:10;;;;;;;2.97;0.80;;;;;;;28.54;26.25;95811.28;5021339;28;20036;-34
2021/05/14 10:58:46;;;;;;;7.38;0.75;;;;;;;28.52;26.36;95818.47;5023517;28;20120;-35
2021/05/14 11:01:28;;;;;;;4.72;0.90;;;;;;;28.51;26.41;95819.44;5027356;28;20048;-32
2021/05/14 11:03:53;;;;;;;5.68;1.05;;;;;;;28.47;26.62;95816.22;5022554;28;20032;-33
2021/05/14 11:06:19;;;;;;;2.30;0.60;;;;;;;28.43;26.64;95818.28;5021105;28;20036;-28
2021/05/14 11:09:06;;;;;;;3.55;0.93;;;;;;;28.39;26.35;95819.47;5024675;28;20040;-29
2021/05/14 11:11:31;;;;;;;1.38;0.50;;;;;;;28.34;26.33;95811.06;5021596;28;20145;-31
2021/05/14 11:14:12;;;;;;;1.02;0.50;;;;;;;28.27;26.31;95809.91;5019791;28;20024;-30
2021/05/14 11:16:44;;;;;;;1.77;0.53;;;;;;;28.21;26.17;95813.81;5023100;28;20087;-30
2021/05/14 11:19:20;;;;;;;5.93;0.82;;;;;;;28.14;26.08;95800.28;5022385;28;20557;-31
2021/05/14 11:22:03;;;;;;;5.60;0.55;;;;;;;28.07;25.93;95804.34;5028631;28;20520;-31
2021/05/14 11:24:29;;;;;;;1.95;0.77;;;;;;;28.01;25.97;95799.59;5021505;28;20033;-32
2021/05/14 11:27:14;;;;;;;3.00;0.85;;;;;;;27.95;25.92;95800.06;5033389;28;20037;-32
2021/05/14 11:29:47;;;;;;;3.50;0.73;;;;;;;27.89;26.00;95802.19;5022438;28;20028;-32
2021/05/14 11:32:23;;;;;;;1.33;0.60;;;;;;;27.84;26.16;95798.28;5020627;28;20115;-29
2021/05/14 11:35:04;;;;;;;3.33;0.82;;;;;;;27.81;25.99;95798.50;5029684;28;20032;-33
2021/05/14 11:37:35;;;;;;;2.97;0.82;;;;;;;27.75;25.83;95799.81;5028503;28;20021;-31
2021/05/14 11:40:14;;;;;;;1.58;0.60;;;;;;;27.71;25.94;95799.22;5030397;28;20949;-32